Time;durP1;ratioP1;P1;durP2;ratioP2;P2;SDS_P1;SDS_P2;PMS_P1;PMS_P2;Temp;Humidity;BMP_temperature;BMP_pressure;BME280_temperature;BME280_humidity;BME280_pressure;Samples;Min_cycle;Max_cycle;Signal;HPM_P1;HPM_P2
2023/08/18 00:00:24;;;;;;;;;;;;;;;17.93;100.00;101773.06;5012246;28;19924;-79
2023/08/18 00:02:50;;;;;;;;;;;;;;;17.89;100.00;101762.63;5011288;28;19925;-79
2023/08/18 00:05:15;;;;;;;;;;;;;;;17.84;100.00;101769.34;5011401;28;19926;-79
2023/08/18 00:07:41;;;;;;;;;;;;;;;17.83;100.00;101766.78;5025953;28;20497;-80
2023/08/18 00:10:08;;;;;;;;;;;;;;;17.78;100.00;101753.63;5026559;28;19928;-80
2023/08/18 00:12:33;;;;;;;;;;;;;;;17.82;100.00;101768.63;5016189;28;19959;-77
2023/08/18 00:14:58;;;;;;;;;;;;;;;17.80;100.00;101765.19;5015275;28;19913;-80
2023/08/18 00:17:23;;;;;;;;;;;;;;;17.82;100.00;101759.66;5012859;28;20137;-81
2023/08/18 00:19:49;;;;;;;;;;;;;;;17.87;100.00;101759.19;5024175;28;19960;-78
2023/08/18 00:22:14;;;;;;;;;;;;;;;17.84;100.00;101760.34;5028007;28;19925;-80
2023/08/18 00:24:39;;;;;;;;;;;;;;;17.77;100.00;101754.63;5025273;28;19937;-81
2023/08/18 00:27:04;;;;;;;;;;;;;;;17.83;100.00;101767.63;5015236;28;20272;-80
2023/08/18 00:29:30;;;;;;;;;;;;;;;17.87;100.00;101761.91;4994357;28;20168;-80
2023/08/18 00:31:55;;;;;;;;;;;;;;;17.86;100.00;101765.63;4999592;28;19945;-79
2023/08/18 00:34:20;;;;;;;;;;;;;;;17.84;100.00;101753.06;5022250;28;19924;-79
2023/08/18 00:36:45;;;;;;;;;;;;;;;17.78;100.00;101753.63;5022606;28;20467;-79
2023/08/18 00:39:10;;;;;;;;;;;;;;;17.74;100.00;101759.50;5015378;28;19928;-80
2023/08/18 00:41:36;;;;;;;;;;;;;;;17.77;100.00;101760.06;5015197;28;20120;-79
2023/08/18 00:44:01;;;;;;;;;;;;;;;17.73;100.00;101753.22;5015552;28;19976;-80
2023/08/18 00:46:26;;;;;;;;;;;;;;;17.71;100.00;101749.78;5027283;28;20015;-80
2023/08/18 00:48:51;;;;;;;;;;;;;;;17.69;100.00;101752.63;5016679;28;20375;-81
2023/08/18 00:51:16;;;;;;;;;;;;;;;17.71;100.00;101757.06;5013864;28;20339;-80
2023/08/18 00:53:42;;;;;;;;;;;;;;;17.69;100.00;101752.63;5007833;28;19921;-80
2023/08/18 00:56:07;;;;;;;;;;;;;;;17.64;100.00;101748.66;5013645;28;19960;-80
2023/08/18 00:58:33;;;;;;;;;;;;;;;17.68;100.00;101752.78;4999894;28;20074;-77
2023/08/18 01:00:58;;;;;;;;;;;;;;;17.71;100.00;101743.50;5001333;28;19925;-78
2023/08/18 01:03:23;;;;;;;;;;;;;;;17.64;100.00;101754.91;5014654;28;20399;-79
2023/08/18 01:05:49;;;;;;;;;;;;;;;17.65;100.00;101750.38;4999478;28;20512;-76
2023/08/18 01:08:14;;;;;;;;;;;;;;;17.67;100.00;101756.50;5015189;28;20439;-79
2023/08/18 01:10:49;;;;;;;;;;;;;;;17.66;100.00;101755.63;5027593;28;20370;-78
2023/08/18 01:13:15;;;;;;;;;;;;;;;17.61;100.00;101752.50;5010627;28;19928;-78
2023/08/18 01:15:42;;;;;;;;;;;;;;;17.59;100.00;101749.09;5014335;28;19964;-78
2023/08/18 01:18:08;;;;;;;;;;;;;;;17.56;100.00;101743.06;5020106;28;19925;-78
2023/08/18 01:20:33;;;;;;;;;;;;;;;17.53;100.00;101746.94;5014936;28;19923;-78
2023/08/18 01:23:01;;;;;;;;;;;;;;;17.52;100.00;101742.50;5015157;28;20654;-79
2023/08/18 01:25:27;;;;;;;;;;;;;;;17.47;100.00;101731.22;5025336;28;19925;-78
2023/08/18 01:27:52;;;;;;;;;;;;;;;17.43;100.00;101730.66;4994593;28;19926;-80
2023/08/18 01:30:18;;;;;;;;;;;;;;;17.45;100.00;101731.38;4996034;28;19917;-78
2023/08/18 01:32:51;;;;;;;;;;;;;;;17.37;100.00;101737.50;5013450;28;19995;-79
2023/08/18 01:35:17;;;;;;;;;;;;;;;17.37;100.00;101733.94;5025297;28;19940;-81
2023/08/18 01:37:42;;;;;;;;;;;;;;;17.42;100.00;101731.66;4997719;28;20122;-78
2023/08/18 01:40:08;;;;;;;;;;;;;;;17.45;100.00;101722.34;4998777;28;20459;-78
2023/08/18 01:42:34;;;;;;;;;;;;;;;17.38;100.00;101728.34;4998100;28;20512;-79
2023/08/18 01:44:59;;;;;;;;;;;;;;;17.37;100.00;101726.63;5012120;28;19979;-79
2023/08/18 01:47:25;;;;;;;;;;;;;;;17.41;100.00;101732.66;5010010;28;20052;-78
2023/08/18 01:49:50;;;;;;;;;;;;;;;17.37;100.00;101726.63;5012978;28;20012;-78
2023/08/18 01:52:15;;;;;;;;;;;;;;;17.38;100.00;101730.22;5009218;28;19917;-77
2023/08/18 01:54:40;;;;;;;;;;;;;;;17.39;100.00;101721.94;5007176;28;19921;-77
2023/08/18 01:57:05;;;;;;;;;;;;;;;17.38;100.00;101716.66;5013030;28;19966;-77
2023/08/18 01:59:31;;;;;;;;;;;;;;;17.41;100.00;101719.09;5021817;28;19925;-78
2023/08/18 02:01:56;;;;;;;;;;;;;;;17.42;100.00;101715.38;5009520;28;19964;-77
2023/08/18 02:04:21;;;;;;;;;;;;;;;17.36;100.00;101719.50;5008830;28;20032;-78
2023/08/18 02:06:46;;;;;;;;;;;;;;;17.30;100.00;101709.22;5008108;28;19925;-78
2023/08/18 02:09:11;;;;;;;;;;;;;;;17.18;100.00;101713.06;4995910;28;19949;-78
2023/08/18 02:11:37;;;;;;;;;;;;;;;17.30;100.00;101705.66;5021188;28;19963;-78
2023/08/18 02:14:02;;;;;;;;;;;;;;;17.29;100.00;101703.94;5010251;28;20010;-77
2023/08/18 02:16:27;;;;;;;;;;;;;;;17.32;100.00;101696.38;5012372;28;20253;-78
2023/08/18 02:18:52;;;;;;;;;;;;;;;17.24;100.00;101690.81;5014522;28;19921;-79
2023/08/18 02:21:18;;;;;;;;;;;;;;;17.26;100.00;101693.34;5014791;28;19921;-77
2023/08/18 02:23:43;;;;;;;;;;;;;;;17.23;100.00;101689.09;5018652;28;20388;-79
2023/08/18 02:26:08;;;;;;;;;;;;;;;17.18;100.00;101694.94;4993378;28;20546;-78
2023/08/18 02:28:34;;;;;;;;;;;;;;;17.24;100.00;101696.22;5026118;28;20324;-78
2023/08/18 02:31:03;;;;;;;;;;;;;;;17.23;100.00;101691.78;5001022;28;19921;-77
2023/08/18 02:33:29;;;;;;;;;;;;;;;17.08;100.00;101692.19;5000435;28;20016;-78
2023/08/18 02:35:54;;;;;;;;;;;;;;;17.20;100.00;101698.38;5015370;28;20311;-78
2023/08/18 02:38:19;;;;;;;;;;;;;;;17.21;100.00;101693.78;4999064;28;19931;-78
2023/08/18 02:40:44;;;;;;;;;;;;;;;17.16;100.00;101696.06;5014839;28;19924;-78
2023/08/18 02:43:09;;;;;;;;;;;;;;;17.16;100.00;101693.34;5012690;28;19952;-78
2023/08/18 02:45:35;;;;;;;;;;;;;;;17.10;100.00;101702.94;5012845;28;20559;-78
2023/08/18 02:48:00;;;;;;;;;;;;;;;17.12;100.00;101702.78;5014462;28;19992;-79
2023/08/18 02:50:25;;;;;;;;;;;;;;;17.15;100.00;101705.22;5015482;28;19961;-78
2023/08/18 02:52:50;;;;;;;;;;;;;;;17.11;100.00;101707.34;5011510;28;20379;-81
2023/08/18 02:55:16;;;;;;;;;;;;;;;17.05;100.00;101703.38;5025148;28;19956;-79
2023/08/18 02:57:41;;;;;;;;;;;;;;;17.10;100.00;101700.22;5007420;28;20252;-79
2023/08/18 03:00:06;;;;;;;;;;;;;;;17.10;100.00;101702.94;5012920;28;20364;-76
2023/08/18 03:02:31;;;;;;;;;;;;;;;17.14;100.00;101693.50;5014328;28;20472;-77
2023/08/18 03:04:57;;;;;;;;;;;;;;;17.09;100.00;101691.19;5016674;28;19960;-79
2023/08/18 03:07:22;;;;;;;;;;;;;;;17.05;100.00;101688.94;5022080;28;19917;-79
2023/08/18 03:09:47;;;;;;;;;;;;;;;17.13;100.00;101688.22;5014994;28;19921;-79
2023/08/18 03:12:12;;;;;;;;;;;;;;;17.16;100.00;101685.22;5007013;28;19917;-78
2023/08/18 03:14:37;;;;;;;;;;;;;;;17.09;100.00;101687.66;5021808;28;20449;-79
2023/08/18 03:17:03;;;;;;;;;;;;;;;17.10;100.00;101675.81;5022528;28;20136;-78
2023/08/18 03:19:28;;;;;;;;;;;;;;;17.11;100.00;101685.66;5013240;28;20347;-79
2023/08/18 03:21:53;;;;;;;;;;;;;;;17.12;100.00;101683.78;5030101;28;19974;-79
2023/08/18 03:24:18;;;;;;;;;;;;;;;17.15;100.00;101684.38;5014701;28;20423;-79
2023/08/18 03:26:44;;;;;;;;;;;;;;;17.16;100.00;101677.06;5013659;28;20335;-78
2023/08/18 03:29:09;;;;;;;;;;;;;;;17.13;100.00;101671.94;5013998;28;20413;-78
2023/08/18 03:31:34;;;;;;;;;;;;;;;17.03;100.00;101678.22;4997184;28;19975;-79
2023/08/18 03:34:00;;;;;;;;;;;;;;;17.13;100.00;101680.94;5008824;28;19948;-80
2023/08/18 03:36:25;;;;;;;;;;;;;;;17.03;100.00;101683.66;4998031;28;19928;-80
2023/08/18 03:38:50;;;;;;;;;;;;;;;16.93;100.00;101686.34;5015551;28;20302;-81
2023/08/18 03:41:15;;;;;;;;;;;;;;;17.03;100.00;101685.50;5015821;28;20478;-80
2023/08/18 03:43:40;;;;;;;;;;;;;;;17.03;100.00;101689.09;5008273;28;20312;-83
2023/08/18 03:46:16;;;;;;;;;;;;;;;17.07;100.00;101678.78;4995106;28;19986;-79
2023/08/18 03:48:41;;;;;;;;;;;;;;;17.03;100.00;101680.94;4995443;28;19917;-81
2023/08/18 03:51:06;;;;;;;;;;;;;;;17.08;100.00;101678.63;5000468;28;19928;-80
2023/08/18 03:53:32;;;;;;;;;;;;;;;17.07;100.00;101676.09;5014075;28;19932;-80
2023/08/18 03:55:59;;;;;;;;;;;;;;;17.09;100.00;101666.78;5012028;28;19990;-80
2023/08/18 03:58:24;;;;;;;;;;;;;;;17.07;100.00;101681.50;5011901;28;20004;-81
2023/08/18 04:00:49;;;;;;;;;;;;;;;17.05;100.00;101673.53;5004095;28;20485;-81
2023/08/18 04:03:15;;;;;;;;;;;;;;;17.05;100.00;101665.38;5011554;28;20390;-82
2023/08/18 04:05:46;;;;;;;;;;;;;;;17.00;100.00;101664.94;5008392;28;19925;-80
2023/08/18 04:08:11;;;;;;;;;;;;;;;17.02;100.00;101672.94;5013569;28;19921;-80
2023/08/18 04:10:36;;;;;;;;;;;;;;;17.01;100.00;101668.50;5011303;28;19940;-82
2023/08/18 04:13:02;;;;;;;;;;;;;;;17.02;100.00;101670.22;5023433;28;19925;-81
2023/08/18 04:15:28;;;;;;;;;;;;;;;17.01;100.00;101672.09;5008465;28;19921;-81
2023/08/18 04:17:53;;;;;;;;;;;;;;;17.01;100.00;101674.81;5007260;28;19918;-80
2023/08/18 04:20:18;;;;;;;;;;;;;;;17.03;100.00;101678.22;5006218;28;20446;-81
2023/08/18 04:22:43;;;;;;;;;;;;;;;16.99;100.00;101665.94;4995277;28;20384;-80
2023/08/18 04:25:09;;;;;;;;;;;;;;;17.13;100.00;101677.34;5009726;28;20443;-81
2023/08/18 04:27:34;;;;;;;;;;;;;;;17.14;100.00;101670.94;5005614;28;19923;-82
2023/08/18 04:29:59;;;;;;;;;;;;;;;17.18;100.00;101672.38;5010035;28;20487;-79
2023/08/18 04:32:25;;;;;;;;;;;;;;;17.17;100.00;101673.38;5009488;28;19964;-79
2023/08/18 04:34:50;;;;;;;;;;;;;;;17.09;100.00;101674.94;5005113;28;20353;-78
2023/08/18 04:37:15;;;;;;;;;;;;;;;17.13;100.00;101671.94;5009137;28;20347;-79
2023/08/18 04:39:40;;;;;;;;;;;;;;;17.08;100.00;101672.38;4994230;28;20417;-80
2023/08/18 04:42:06;;;;;;;;;;;;;;;17.07;100.00;101668.81;5009421;28;20422;-77
2023/08/18 04:44:31;;;;;;;;;;;;;;;17.06;100.00;101675.25;5007787;28;20268;-79
2023/08/18 04:46:56;;;;;;;;;;;;;;;17.02;100.00;101679.22;4997234;28;20019;-79
2023/08/18 04:49:21;;;;;;;;;;;;;;;17.01;100.00;101680.22;5021184;28;19944;-79
2023/08/18 04:51:47;;;;;;;;;;;;;;;16.96;100.00;101670.78;5010833;28;19931;-79
2023/08/18 04:54:12;;;;;;;;;;;;;;;17.00;100.00;101672.22;5007704;28;19959;-79
2023/08/18 04:56:38;;;;;;;;;;;;;;;17.02;100.00;101657.53;4997597;28;19925;-78
2023/08/18 04:59:03;;;;;;;;;;;;;;;16.92;100.00;101657.50;5009672;28;20912;-79
2023/08/18 05:01:28;;;;;;;;;;;;;;;16.99;100.00;101655.09;5012491;28;20279;-79
2023/08/18 05:03:53;;;;;;;;;;;;;;;16.86;100.00;101657.19;4994890;28;19920;-79
2023/08/18 05:06:19;;;;;;;;;;;;;;;17.02;100.00;101651.22;5026988;28;19929;-81
2023/08/18 05:08:44;;;;;;;;;;;;;;;17.00;100.00;101664.94;5009550;28;19921;-80
2023/08/18 05:11:10;;;;;;;;;;;;;;;17.07;100.00;101666.09;4996513;28;19944;-80
2023/08/18 05:13:36;;;;;;;;;;;;;;;17.07;100.00;101676.09;5011538;28;20435;-80
2023/08/18 05:16:01;;;;;;;;;;;;;;;17.03;100.00;101672.81;5032324;28;19925;-82
2023/08/18 05:18:28;;;;;;;;;;;;;;;17.06;100.00;101658.97;5008587;28;20516;-81
2023/08/18 05:20:54;;;;;;;;;;;;;;;17.07;100.00;101655.25;4994292;28;20428;-80
2023/08/18 05:23:19;;;;;;;;;;;;;;;17.07;100.00;101657.09;5011507;28;19967;-82
2023/08/18 05:25:45;;;;;;;;;;;;;;;17.08;100.00;101665.06;5025781;28;19931;-83
2023/08/18 05:28:10;;;;;;;;;;;;;;;17.10;100.00;101667.66;5003880;28;20015;-81
2023/08/18 05:30:36;;;;;;;;;;;;;;;17.13;100.00;101669.22;5017363;28;19956;-78
2023/08/18 05:33:01;;;;;;;;;;;;;;;17.19;100.00;101668.66;5019093;28;19944;-81
2023/08/18 05:35:26;;;;;;;;;;;;;;;17.18;100.00;101675.94;5012147;28;19948;-76
2023/08/18 05:37:51;;;;;;;;;;;;;;;17.17;100.00;101681.50;4996003;28;19926;-78
2023/08/18 05:40:16;;;;;;;;;;;;;;;17.22;100.00;101674.66;5000808;28;19928;-78
2023/08/18 05:42:42;;;;;;;;;;;;;;;17.11;100.00;101674.81;5014765;28;20233;-78
2023/08/18 05:45:07;;;;;;;;;;;;;;;17.13;100.00;101675.53;5007678;28;19925;-75
2023/08/18 05:47:32;;;;;;;;;;;;;;;17.07;100.00;101686.94;5017543;28;20007;-79
2023/08/18 05:49:59;;;;;;;;;;;;;;;17.17;100.00;101667.94;4998795;28;20028;-78
2023/08/18 05:52:24;;;;;;;;;;;;;;;17.06;100.00;101666.22;5016225;28;20103;-78
2023/08/18 05:54:50;;;;;;;;;;;;;;;17.11;100.00;101663.94;5006282;28;19925;-78
2023/08/18 05:57:15;;;;;;;;;;;;;;;17.03;100.00;101670.09;5018593;28;19924;-78
2023/08/18 05:59:40;;;;;;;;;;;;;;;17.08;100.00;101662.34;5009190;28;20271;-79
2023/08/18 06:02:05;;;;;;;;;;;;;;;17.12;100.00;101654.81;5015086;28;19921;-80
2023/08/18 06:04:31;;;;;;;;;;;;;;;17.26;100.00;101656.22;5015890;28;19929;-80
2023/08/18 06:06:56;;;;;;;;;;;;;;;17.29;100.00;101650.53;4997716;28;19917;-83
2023/08/18 06:09:21;;;;;;;;;;;;;;;17.40;100.00;101657.66;4998361;28;20369;-82
2023/08/18 06:11:46;;;;;;;;;;;;;;;17.34;100.00;101655.50;5015436;28;19959;-82
2023/08/18 06:14:12;;;;;;;;;;;;;;;17.27;100.00;101657.94;4999769;28;19921;-81
2023/08/18 06:16:37;;;;;;;;;;;;;;;17.38;100.00;101656.94;5016970;28;19956;-80
2023/08/18 06:19:02;;;;;;;;;;;;;;;17.49;100.00;101651.34;4999165;28;20275;-80
2023/08/18 06:21:29;;;;;;;;;;;;;;;17.36;100.00;101651.63;4996955;28;20276;-83
2023/08/18 06:23:54;;;;;;;;;;;;;;;17.41;100.00;101650.34;5000913;28;20983;-80
2023/08/18 06:26:20;;;;;;;;;;;;;;;17.49;100.00;101645.06;5017499;28;20520;-80
2023/08/18 06:28:45;;;;;;;;;;;;;;;17.47;100.00;101655.22;5007167;28;20368;-84
2023/08/18 06:31:10;;;;;;;;;;;;;;;17.57;100.00;101647.03;4999521;28;20332;-82
2023/08/18 06:33:35;;;;;;;;;;;;;;;17.46;100.00;101648.94;5007702;28;20391;-77
2023/08/18 06:36:01;;;;;;;;;;;;;;;17.65;100.00;101656.16;5016990;28;20581;-81
2023/08/18 06:38:26;;;;;;;;;;;;;;;17.66;100.00;101654.31;5016829;28;19929;-81
2023/08/18 06:40:52;;;;;;;;;;;;;;;17.55;100.00;101641.78;5015574;28;19944;-81
2023/08/18 06:43:17;;;;;;;;;;;;;;;17.63;100.00;101647.31;4995898;28;20943;-78
2023/08/18 06:45:42;;;;;;;;;;;;;;;17.65;100.00;101645.31;5013300;28;20011;-81
2023/08/18 06:48:07;;;;;;;;;;;;;;;17.74;100.00;101642.72;4998406;28;19925;-82
2023/08/18 06:50:32;;;;;;;;;;;;;;;17.83;100.00;101652.72;5016592;28;19986;-82
2023/08/18 06:52:58;;;;;;;;;;;;;;;17.92;100.00;101657.22;5014175;28;19984;-81
2023/08/18 06:55:23;;;;;;;;;;;;;;;18.10;100.00;101656.50;4997077;28;20322;-80
2023/08/18 06:57:48;;;;;;;;;;;;;;;18.17;100.00;101654.03;4994651;28;20604;-80
2023/08/18 07:00:15;;;;;;;;;;;;;;;18.28;100.00;101645.66;5005644;28;21241;-81
2023/08/18 07:02:40;;;;;;;;;;;;;;;18.35;100.00;101645.94;5006500;28;19932;-82
2023/08/18 07:05:08;;;;;;;;;;;;;;;18.39;100.00;101648.19;5010210;28;19921;-78
2023/08/18 07:07:33;;;;;;;;;;;;;;;18.33;100.00;101645.25;4996874;28;19980;-81
2023/08/18 07:09:59;;;;;;;;;;;;;;;18.09;100.00;101650.19;5016466;28;20444;-79
2023/08/18 07:12:24;;;;;;;;;;;;;;;18.31;100.00;101647.25;5002297;28;19921;-83
2023/08/18 07:14:49;;;;;;;;;;;;;;;18.26;100.00;101634.13;5005473;28;20015;-82
2023/08/18 07:17:15;;;;;;;;;;;;;;;18.30;100.00;101635.50;5010314;28;19963;-81
2023/08/18 07:19:40;;;;;;;;;;;;;;;18.32;100.00;101636.22;5016768;28;19921;-79
2023/08/18 07:22:05;;;;;;;;;;;;;;;18.44;100.00;101634.16;4996992;28;19921;-81
2023/08/18 07:24:31;;;;;;;;;;;;;;;18.51;100.00;101639.84;5016021;28;20653;-81
2023/08/18 07:26:56;;;;;;;;;;;;;;;18.57;100.00;101637.38;4997617;28;20000;-84
2023/08/18 07:29:22;;;;;;;;;;;;;;;18.54;100.00;101647.72;5004218;28;19916;-83
2023/08/18 07:31:47;;;;;;;;;;;;;;;18.61;100.00;101647.94;5027685;28;20275;-77
2023/08/18 07:34:12;;;;;;;;;;;;;;;18.65;100.00;101652.06;5015027;28;20348;-80
2023/08/18 07:36:39;;;;;;;;;;;;;;;18.68;100.00;101652.63;5023177;28;20277;-83
2023/08/18 07:39:04;;;;;;;;;;;;;;;18.53;100.00;101655.00;5013622;28;19970;-84
2023/08/18 07:41:29;;;;;;;;;;;;;;;18.60;100.00;101655.22;4999995;28;19921;-81
2023/08/18 07:43:54;;;;;;;;;;;;;;;18.63;100.00;101652.22;4996444;28;19968;-80
2023/08/18 07:46:20;;;;;;;;;;;;;;;18.65;100.00;101654.78;5014626;28;20217;-82
2023/08/18 07:48:45;;;;;;;;;;;;;;;18.44;100.00;101654.06;5022940;28;19929;-80
2023/08/18 07:51:11;;;;;;;;;;;;;;;18.40;100.00;101655.34;5013311;28;19967;-78
2023/08/18 07:53:36;;;;;;;;;;;;;;;18.32;100.00;101651.69;5015420;28;20078;-77
2023/08/18 07:56:03;;;;;;;;;;;;;;;18.41;100.00;101650.75;5013709;28;19924;-79
2023/08/18 07:58:28;;;;;;;;;;;;;;;18.37;100.00;101641.22;5012611;28;20575;-78
2023/08/18 08:00:55;;;;;;;;;;;;;;;18.57;100.00;101650.97;5004733;28;20268;-77
2023/08/18 08:03:22;;;;;;;;;;;;;;;18.65;100.00;101654.78;4996348;28;19965;-78
2023/08/18 08:05:47;;;;;;;;;;;;;;;18.64;100.00;101656.63;5011286;28;20363;-78
2023/08/18 08:08:12;;;;;;;;;;;;;;;18.75;100.00;101658.28;5011842;28;19921;-77
2023/08/18 08:10:37;;;;;;;;;;;;;;;18.88;100.00;101657.91;4997118;28;19924;-80
2023/08/18 08:13:02;;;;;;;;;;;;;;;19.02;100.00;101662.00;5012563;28;19921;-75
2023/08/18 08:15:28;;;;;;;;;;;;;;;19.04;100.00;101662.69;5013829;28;19921;-76
2023/08/18 08:17:53;;;;;;;;;;;;;;;18.71;100.00;101660.47;5013462;28;19917;-77
2023/08/18 08:20:18;;;;;;;;;;;;;;;18.85;100.00;101664.53;5010547;28;19942;-76
2023/08/18 08:22:44;;;;;;;;;;;;;;;18.89;100.00;101663.22;5015694;28;20263;-81
2023/08/18 08:25:10;;;;;;;;;;;;;;;18.82;100.00;101670.28;5015944;28;20303;-80
2023/08/18 08:27:35;;;;;;;;;;;;;;;18.83;100.00;101666.53;5013135;28;19960;-80
2023/08/18 08:30:00;;;;;;;;;;;;;;;18.87;100.00;101659.78;5015568;28;19921;-76
2023/08/18 08:32:25;;;;;;;;;;;;;;;18.96;100.00;101658.03;5015796;28;20352;-78
2023/08/18 08:34:51;;;;;;;;;;;;;;;18.81;100.00;101657.69;5018001;28;19921;-74
2023/08/18 08:37:17;;;;;;;;;;;;;;;18.88;100.00;101666.94;5018344;28;19925;-75
2023/08/18 08:39:42;;;;;;;;;;;;;;;19.03;100.00;101661.84;5008085;28;19941;-76
2023/08/18 08:42:08;;;;;;;;;;;;;;;19.29;100.00;101655.63;5011032;28;20427;-77
2023/08/18 08:44:33;;;;;;;;;;;;;;;19.43;100.00;101651.47;5015193;28;19921;-76
2023/08/18 08:47:01;;;;;;;;;;;;;;;19.55;100.00;101657.50;5014980;28;19925;-77
2023/08/18 08:49:30;;;;;;;;;;;;;;;19.52;100.00;101654.25;5015963;28;20402;-74
2023/08/18 08:52:02;;;;;;;;;;;;;;;19.71;100.00;101653.19;5016113;28;19928;-77
2023/08/18 08:54:28;;;;;;;;;;;;;;;19.75;100.00;101654.56;4999463;28;20683;-77
2023/08/18 08:56:53;;;;;;;;;;;;;;;19.70;100.00;101659.66;5027233;28;19925;-78
2023/08/18 08:59:19;;;;;;;;;;;;;;;19.73;100.00;101657.44;5023625;28;19921;-76
2023/08/18 09:01:44;;;;;;;;;;;;;;;19.69;100.00;101661.53;5004590;28;19956;-78
2023/08/18 09:04:09;;;;;;;;;;;;;;;19.76;100.00;101665.31;5000117;28;19932;-81
2023/08/18 09:06:35;;;;;;;;;;;;;;;19.88;100.00;101654.19;5014596;28;19936;-78
2023/08/18 09:09:00;;;;;;;;;;;;;;;19.93;100.00;101662.72;4999285;28;19952;-75
2023/08/18 09:11:42;;;;;;;;;;;;;;;19.81;100.00;101661.25;5003111;28;19920;-79
2023/08/18 09:14:07;;;;;;;;;;;;;;;19.72;100.00;101663.06;5019451;28;20028;-75
2023/08/18 09:16:32;;;;;;;;;;;;;;;19.70;100.00;101665.09;4997841;28;20011;-76
2023/08/18 09:18:57;;;;;;;;;;;;;;;19.39;100.00;101676.44;5010979;28;19921;-77
2023/08/18 09:21:23;;;;;;;;;;;;;;;19.49;100.00;101669.03;5004398;28;19964;-75
2023/08/18 09:23:53;;;;;;;;;;;;;;;19.49;100.00;101669.03;5026803;28;20016;-77
2023/08/18 09:26:18;;;;;;;;;;;;;;;19.69;100.00;101664.25;5002675;28;19967;-73
2023/08/18 09:28:44;;;;;;;;;;;;;;;19.92;100.00;101669.19;5015904;28;20020;-76
2023/08/18 09:31:09;;;;;;;;;;;;;;;19.85;100.00;101658.06;4999929;28;19921;-77
2023/08/18 09:33:34;;;;;;;;;;;;;;;19.82;100.00;101662.97;5000587;28;20053;-75
2023/08/18 09:35:59;;;;;;;;;;;;;;;19.87;100.00;101658.72;5008845;28;19967;-78
2023/08/18 09:38:25;;;;;;;;;;;;;;;19.98;100.00;101659.50;5009144;28;19925;-76
2023/08/18 09:40:54;;;;;;;;;;;;;;;20.14;100.00;101665.03;5015937;28;19917;-75
2023/08/18 09:43:19;;;;;;;;;;;;;;;19.98;100.00;101654.94;5007987;28;19929;-75
2023/08/18 09:45:44;;;;;;;;;;;;;;;20.13;100.00;101659.75;5002987;28;19921;-77
2023/08/18 09:48:10;;;;;;;;;;;;;;;20.21;100.00;101662.53;5005864;28;19928;-74
2023/08/18 09:50:35;;;;;;;;;;;;;;;20.26;100.00;101659.31;5008334;28;19963;-77
2023/08/18 09:53:00;;;;;;;;;;;;;;;20.42;100.00;101631.25;5010950;28;20383;-76
2023/08/18 09:55:28;;;;;;;;;;;;;;;20.74;100.00;101643.28;5016048;28;19921;-76
2023/08/18 09:58:17;;;;;;;;;;;;;;;20.74;100.00;101630.47;5013500;28;19917;-78
2023/08/18 10:00:43;;;;;;;;;;;;;;;20.87;100.00;101640.09;5007824;28;19917;-77
2023/08/18 10:03:08;;;;;;;;;;;;;;;21.00;100.00;101634.13;5005648;28;19929;-75
2023/08/18 10:05:33;;;;;;;;;;;;;;;21.15;100.00;101628.84;5029535;28;19921;-77
2023/08/18 10:07:58;;;;;;;;;;;;;;;21.37;100.00;101630.88;5023167;28;19922;-78
2023/08/18 10:10:24;;;;;;;;;;;;;;;21.40;100.00;101624.22;5007100;28;19928;-78
2023/08/18 10:12:49;;;;;;;;;;;;;;;21.45;100.00;101624.56;5015149;28;19921;-77
2023/08/18 10:15:14;;;;;;;;;;;;;;;21.14;100.00;101622.53;4999518;28;20039;-77
2023/08/18 10:17:39;;;;;;;;;;;;;;;21.50;100.00;101618.56;5006042;28;19925;-77
2023/08/18 10:20:05;;;;;;;;;;;;;;;21.47;100.00;101621.63;5005327;28;19917;-74
2023/08/18 10:22:32;;;;;;;;;;;;;;;21.21;100.00;101625.41;5023854;28;19929;-78
2023/08/18 10:24:57;;;;;;;;;;;;;;;21.38;100.00;101623.53;4996981;28;19921;-78
2023/08/18 10:27:25;;;;;;;;;;;;;;;21.68;100.00;101619.25;5010698;28;19927;-78
2023/08/18 10:29:52;;;;;;;;;;;;;;;22.06;100.00;101624.09;5009169;28;19921;-77
2023/08/18 10:32:17;;;;;;;;;;;;;;;22.22;100.00;101620.44;5010787;28;20569;-76
2023/08/18 10:34:43;;;;;;;;;;;;;;;22.28;100.00;101621.63;5009676;28;19921;-76
2023/08/18 10:37:08;;;;;;;;;;;;;;;22.40;100.00;101622.91;5019912;28;19935;-75
2023/08/18 10:39:36;;;;;;;;;;;;;;;22.66;100.00;101619.03;4993378;28;20455;-75
2023/08/18 10:42:08;;;;;;;;;;;;;;;23.13;100.00;101621.78;5008555;28;20360;-75
2023/08/18 10:44:34;;;;;;;;;;;;;;;23.02;100.00;101621.16;4995851;28;19928;-80
2023/08/18 10:47:03;;;;;;;;;;;;;;;22.67;100.00;101612.50;5012850;28;19925;-76
2023/08/18 10:49:28;;;;;;;;;;;;;;;22.24;100.00;101610.19;5011864;28;19926;-82
2023/08/18 10:51:54;;;;;;;;;;;;;;;22.30;100.00;101603.16;5015866;28;19928;-75
2023/08/18 10:54:19;;;;;;;;;;;;;;;22.80;100.00;101603.69;5009901;28;19980;-78
2023/08/18 10:56:44;;;;;;;;;;;;;;;23.15;100.00;101595.91;5004106;28;19937;-81
2023/08/18 10:59:09;;;;;;;;;;;;;;;23.65;100.00;101581.72;5010811;28;19982;-81
2023/08/18 11:01:35;;;;;;;;;;;;;;;24.00;100.00;101576.56;5011914;28;20448;-81
2023/08/18 11:04:00;;;;;;;;;;;;;;;23.85;100.00;101575.66;5004363;28;19921;-79
2023/08/18 11:06:26;;;;;;;;;;;;;;;24.09;100.00;101575.41;5008185;28;19921;-75
2023/08/18 11:08:53;;;;;;;;;;;;;;;24.01;100.00;101572.78;5007361;28;20354;-79
2023/08/18 11:11:19;;;;;;;;;;;;;;;24.60;100.00;101567.31;5012061;28;19928;-76
2023/08/18 11:13:44;;;;;;;;;;;;;;;24.91;100.00;101564.25;4997256;28;19924;-79
2023/08/18 11:16:09;;;;;;;;;;;;;;;24.86;100.00;101564.84;5010618;28;19925;-78
2023/08/18 11:18:34;;;;;;;;;;;;;;;25.00;100.00;101559.50;5004619;28;19921;-78
2023/08/18 11:21:00;;;;;;;;;;;;;;;24.85;100.00;101567.81;5017875;28;20030;-80
2023/08/18 11:23:25;;;;;;;;;;;;;;;25.09;100.00;101551.97;5008713;28;19960;-78
2023/08/18 11:25:50;;;;;;;;;;;;;;;25.55;100.00;101556.97;4997250;28;20011;-81
2023/08/18 11:28:15;;;;;;;;;;;;;;;26.56;100.00;101562.91;5016484;28;20011;-79
2023/08/18 11:30:41;;;;;;;;;;;;;;;27.34;100.00;101558.69;5019150;28;20016;-79
2023/08/18 11:33:06;;;;;;;;;;;;;;;27.77;100.00;101545.47;5008058;28;20013;-77
2023/08/18 11:35:32;;;;;;;;;;;;;;;27.90;100.00;101547.34;5010165;28;20268;-76
2023/08/18 11:37:58;;;;;;;;;;;;;;;27.67;99.70;101541.25;5021602;28;19921;-75
2023/08/18 11:40:23;;;;;;;;;;;;;;;27.08;100.00;101534.78;5000004;28;19928;-78
2023/08/18 11:42:49;;;;;;;;;;;;;;;27.37;100.00;101529.84;4998991;28;20225;-78
2023/08/18 11:45:15;;;;;;;;;;;;;;;27.56;100.00;101530.88;5013504;28;20048;-80
2023/08/18 11:47:41;;;;;;;;;;;;;;;27.57;100.00;101520.72;5008349;28;19925;-76
2023/08/18 11:50:07;;;;;;;;;;;;;;;28.18;99.78;101527.69;5009715;28;20314;-78
2023/08/18 11:52:50;;;;;;;;;;;;;;;28.65;88.21;101521.00;5014194;28;20295;-75
2023/08/18 11:55:15;;;;;;;;;;;;;;;28.41;96.30;101509.69;5011719;28;19921;-78
2023/08/18 11:57:41;;;;;;;;;;;;;;;28.01;97.18;101509.94;5001727;28;19921;-77
2023/08/18 12:00:12;;;;;;;;;;;;;;;28.95;95.75;101490.81;5012309;28;19944;-74
2023/08/18 12:02:43;;;;;;;;;;;;;;;28.95;88.31;101499.13;5001715;28;19987;-77
2023/08/18 12:05:29;;;;;;;;;;;;;;;28.48;98.74;101496.69;5013195;28;19921;-77
2023/08/18 12:07:54;;;;;;;;;;;;;;;28.97;98.38;101502.50;5013013;28;19928;-78
2023/08/18 12:10:20;;;;;;;;;;;;;;;29.30;90.54;101500.47;5017440;28;20462;-82
2023/08/18 12:12:55;;;;;;;;;;;;;;;29.52;89.42;101497.28;5012401;28;19917;-80
2023/08/18 12:15:21;;;;;;;;;;;;;;;28.79;89.81;101505.19;5012553;28;19921;-81
2023/08/18 12:17:47;;;;;;;;;;;;;;;27.80;94.88;101493.47;5018527;28;19960;-77
2023/08/18 12:20:12;;;;;;;;;;;;;;;28.29;98.22;101493.88;5018688;28;19922;-80